Hovedside
METAR-TAF:

METAR-TAF

Lufthavner :

Majuro, Marshalløyene

breddegrad: 07-04N, lengdegrad: 171-17E, høyde over havet: 2 m

Gjeldene værobservasjon

Denne rapporten ble laget for 15 minutter siden, klokken 04:51 UTC
Vind 11 kt fra Vest-sørvest
Temperatur 29°C
Luftfuktighet 79%
Trykk 1007 hPa
Sikt: 24.1 km
Få skyer i en høyde av 1500 ft
Spredte skyer i en høyde av 5000 ft
Brutte skyer i en høyde av 30000 ft

METAR: PKMJ 210451Z 24011KT 15SM FEW015 SCT050 BKN300 29/25 A2974

Tid: 17:06 (05:06 UTC)

Varsel

Denne rapporten ble laget for 5 timer og 30 minutter siden, klokken 23:36 UTC
Varsel gyldig fra 21. klokken 00 UTC til 21. klokken 24 UTC
Vind 10 kt fra Sørvest
Sikt: 10 km
Spredte skyer i en høyde av 1500 ft
Spredte skyer i en høyde av 5000 ft
Brutte skyer i en høyde av 30000 ft
regnbyger i nærheten

TAF: PKMJ 202336Z 2100/2124 22010KT P6SM VCSH SCT015 SCT050 BKN300

Værobservasjoner og værvarsel for over 4000 flyplasser (METAR- og TAF-rapporter).

Tilgjengelige stasjoner er representert av de røde og gule prikkene på kartet.

Hold musepekeren over prikken for å se navnet på stasjonen.

Klikk så for å se værobservasjoner og -varsler.

For å forandre kartet kan du klikke på den grønne knappen med svart kryss for å zoome inn, på den grønne knappen med strek for å zoome ut, eller på de grønne pilene for å se tilstøtende kart.


METAR-TAF: